sensor_id;sensor_type;location;lat;lon;timestamp;pressure;altitude;pressure_sealevel;temperature;humidity
10470;BME280;5282;47.052;15.458;2022-09-09T00:02:18;97420.38;;;15.84;100.00
10470;BME280;5282;47.052;15.458;2022-09-09T00:04:54;97431.81;;;15.72;100.00
10470;BME280;5282;47.052;15.458;2022-09-09T00:07:34;97428.66;;;15.62;100.00
10470;BME280;5282;47.052;15.458;2022-09-09T00:10:15;97433.28;;;15.68;100.00
10470;BME280;5282;47.052;15.458;2022-09-09T00:12:50;97433.63;;;15.52;100.00
10470;BME280;5282;47.052;15.458;2022-09-09T00:15:23;97429.88;;;15.53;100.00
10470;BME280;5282;47.052;15.458;2022-09-09T00:17:57;97435.34;;;15.60;100.00
10470;BME280;5282;47.052;15.458;2022-09-09T00:20:30;97442.44;;;15.61;100.00
10470;BME280;5282;47.052;15.458;2022-09-09T00:23:03;97437.44;;;15.64;100.00
10470;BME280;5282;47.052;15.458;2022-09-09T00:25:39;97444.16;;;15.68;100.00
10470;BME280;5282;47.052;15.458;2022-09-09T00:28:13;97442.41;;;15.54;100.00
10470;BME280;5282;47.052;15.458;2022-09-09T00:30:45;97440.31;;;15.49;100.00
10470;BME280;5282;47.052;15.458;2022-09-09T00:33:15;97441.56;;;15.53;100.00
10470;BME280;5282;47.052;15.458;2022-09-09T00:35:48;97447.84;;;15.54;100.00
10470;BME280;5282;47.052;15.458;2022-09-09T00:38:23;97444.91;;;15.55;100.00
10470;BME280;5282;47.052;15.458;2022-09-09T00:40:57;97446.16;;;15.53;100.00
10470;BME280;5282;47.052;15.458;2022-09-09T00:43:29;97433.25;;;15.55;100.00
10470;BME280;5282;47.052;15.458;2022-09-09T00:46:18;97431.94;;;15.51;100.00
10470;BME280;5282;47.052;15.458;2022-09-09T00:48:55;97437.25;;;15.24;100.00
10470;BME280;5282;47.052;15.458;2022-09-09T00:51:30;97441.03;;;14.94;100.00
10470;BME280;5282;47.052;15.458;2022-09-09T00:54:16;97438.50;;;14.93;100.00
10470;BME280;5282;47.052;15.458;2022-09-09T00:56:55;97432.50;;;14.98;100.00
10470;BME280;5282;47.052;15.458;2022-09-09T00:59:31;97431.16;;;15.15;100.00
10470;BME280;5282;47.052;15.458;2022-09-09T01:02:03;97432.63;;;15.18;100.00
10470;BME280;5282;47.052;15.458;2022-09-09T01:04:36;97423.19;;;15.14;100.00
10470;BME280;5282;47.052;15.458;2022-09-09T01:07:09;97422.97;;;15.08;100.00
10470;BME280;5282;47.052;15.458;2022-09-09T01:09:44;97423.19;;;15.14;100.00
10470;BME280;5282;47.052;15.458;2022-09-09T01:12:16;97422.97;;;15.08;100.00
10470;BME280;5282;47.052;15.458;2022-09-09T01:14:48;97440.88;;;15.03;100.00
10470;BME280;5282;47.052;15.458;2022-09-09T01:17:20;97439.00;;;15.03;100.00
10470;BME280;5282;47.052;15.458;2022-09-09T01:19:57;97433.38;;;15.05;100.00
10470;BME280;5282;47.052;15.458;2022-09-09T01:22:34;97439.63;;;15.05;100.00
10470;BME280;5282;47.052;15.458;2022-09-09T01:25:22;97440.22;;;15.01;100.00
10470;BME280;5282;47.052;15.458;2022-09-09T01:27:56;97440.81;;;14.96;100.00
10470;BME280;5282;47.052;15.458;2022-09-09T01:30:24;97434.97;;;14.92;100.00
10470;BME280;5282;47.052;15.458;2022-09-09T01:32:54;97446.03;;;14.98;100.00
10470;BME280;5282;47.052;15.458;2022-09-09T01:35:31;97451.22;;;14.92;100.00
10470;BME280;5282;47.052;15.458;2022-09-09T01:37:59;97450.97;;;14.87;100.00
10470;BME280;5282;47.052;15.458;2022-09-09T01:40:26;97454.91;;;14.85;100.00
10470;BME280;5282;47.052;15.458;2022-09-09T01:42:56;97444.47;;;14.81;100.00
10470;BME280;5282;47.052;15.458;2022-09-09T01:45:23;97442.41;;;14.84;100.00
10470;BME280;5282;47.052;15.458;2022-09-09T01:47:52;97451.34;;;14.84;100.00
10470;BME280;5282;47.052;15.458;2022-09-09T01:50:20;97450.28;;;14.78;100.00
10470;BME280;5282;47.052;15.458;2022-09-09T01:52:50;97448.16;;;14.74;100.00
10470;BME280;5282;47.052;15.458;2022-09-09T01:55:24;97446.81;;;14.41;100.00
10470;BME280;5282;47.052;15.458;2022-09-09T01:58:05;97442.75;;;14.52;100.00
10470;BME280;5282;47.052;15.458;2022-09-09T02:00:41;97436.41;;;14.66;100.00
10470;BME280;5282;47.052;15.458;2022-09-09T02:03:20;97437.25;;;14.67;100.00
10470;BME280;5282;47.052;15.458;2022-09-09T02:05:59;97436.06;;;14.70;100.00
10470;BME280;5282;47.052;15.458;2022-09-09T02:08:34;97438.56;;;14.71;100.00
10470;BME280;5282;47.052;15.458;2022-09-09T02:11:08;97430.81;;;14.68;100.00
10470;BME280;5282;47.052;15.458;2022-09-09T02:13:40;97439.41;;;14.72;100.00
10470;BME280;5282;47.052;15.458;2022-09-09T02:16:13;97439.59;;;14.70;100.00
10470;BME280;5282;47.052;15.458;2022-09-09T02:18:48;97443.75;;;14.73;100.00
10470;BME280;5282;47.052;15.458;2022-09-09T02:21:18;97442.72;;;14.74;100.00
10470;BME280;5282;47.052;15.458;2022-09-09T02:23:52;97443.22;;;14.77;100.00
10470;BME280;5282;47.052;15.458;2022-09-09T02:26:21;97443.59;;;14.74;100.00
10470;BME280;5282;47.052;15.458;2022-09-09T02:28:51;97450.53;;;14.62;100.00
10470;BME280;5282;47.052;15.458;2022-09-09T02:31:22;97455.31;;;14.60;100.00
10470;BME280;5282;47.052;15.458;2022-09-09T02:33:55;97458.34;;;14.50;100.00
10470;BME280;5282;47.052;15.458;2022-09-09T02:36:31;97459.44;;;14.34;100.00
10470;BME280;5282;47.052;15.458;2022-09-09T02:39:05;97466.03;;;14.25;100.00
10470;BME280;5282;47.052;15.458;2022-09-09T02:41:39;97464.75;;;14.42;100.00
10470;BME280;5282;47.052;15.458;2022-09-09T02:44:10;97467.91;;;14.46;100.00
10470;BME280;5282;47.052;15.458;2022-09-09T02:46:51;97460.53;;;14.40;100.00
10470;BME280;5282;47.052;15.458;2022-09-09T02:49:29;97463.31;;;14.46;100.00
10470;BME280;5282;47.052;15.458;2022-09-09T02:52:02;97470.47;;;14.54;100.00
10470;BME280;5282;47.052;15.458;2022-09-09T02:54:38;97474.34;;;14.66;100.00
10470;BME280;5282;47.052;15.458;2022-09-09T02:57:08;97475.72;;;14.77;100.00
10470;BME280;5282;47.052;15.458;2022-09-09T02:59:40;97479.31;;;14.85;100.00
10470;BME280;5282;47.052;15.458;2022-09-09T03:02:09;97487.19;;;14.79;100.00
10470;BME280;5282;47.052;15.458;2022-09-09T03:04:38;97483.31;;;14.67;100.00
10470;BME280;5282;47.052;15.458;2022-09-09T03:07:13;97480.66;;;14.74;100.00
10470;BME280;5282;47.052;15.458;2022-09-09T03:09:45;97479.97;;;14.87;100.00
10470;BME280;5282;47.052;15.458;2022-09-09T03:12:25;97468.91;;;14.88;100.00
10470;BME280;5282;47.052;15.458;2022-09-09T03:14:56;97477.91;;;14.89;100.00
10470;BME280;5282;47.052;15.458;2022-09-09T03:17:27;97470.97;;;14.86;100.00
10470;BME280;5282;47.052;15.458;2022-09-09T03:19:58;97459.78;;;14.68;100.00
10470;BME280;5282;47.052;15.458;2022-09-09T03:22:33;97451.84;;;14.66;100.00
10470;BME280;5282;47.052;15.458;2022-09-09T03:25:10;97453.41;;;14.75;100.00
10470;BME280;5282;47.052;15.458;2022-09-09T03:27:53;97450.19;;;14.93;100.00
10470;BME280;5282;47.052;15.458;2022-09-09T03:30:27;97450.81;;;14.95;100.00
10470;BME280;5282;47.052;15.458;2022-09-09T03:32:59;97454.66;;;14.79;100.00
10470;BME280;5282;47.052;15.458;2022-09-09T03:35:27;97457.31;;;14.73;100.00
10470;BME280;5282;47.052;15.458;2022-09-09T03:37:56;97465.28;;;14.74;100.00
10470;BME280;5282;47.052;15.458;2022-09-09T03:40:25;97467.44;;;14.86;100.00
10470;BME280;5282;47.052;15.458;2022-09-09T03:42:53;97473.56;;;14.94;100.00
10470;BME280;5282;47.052;15.458;2022-09-09T03:45:22;97463.53;;;14.95;100.00
10470;BME280;5282;47.052;15.458;2022-09-09T03:47:57;97464.03;;;15.05;100.00
10470;BME280;5282;47.052;15.458;2022-09-09T03:50:28;97466.09;;;15.03;100.00
10470;BME280;5282;47.052;15.458;2022-09-09T03:52:57;97473.78;;;15.00;100.00
10470;BME280;5282;47.052;15.458;2022-09-09T03:55:25;97484.19;;;14.96;100.00
10470;BME280;5282;47.052;15.458;2022-09-09T03:57:52;97482.91;;;14.92;100.00
10470;BME280;5282;47.052;15.458;2022-09-09T04:00:21;97478.34;;;14.92;100.00
10470;BME280;5282;47.052;15.458;2022-09-09T04:02:50;97481.66;;;14.88;100.00
10470;BME280;5282;47.052;15.458;2022-09-09T04:05:21;97476.59;;;14.85;100.00
10470;BME280;5282;47.052;15.458;2022-09-09T04:07:51;97479.69;;;14.81;100.00
10470;BME280;5282;47.052;15.458;2022-09-09T04:10:20;97476.56;;;14.78;100.00
10470;BME280;5282;47.052;15.458;2022-09-09T04:12:47;97483.59;;;14.72;100.00
10470;BME280;5282;47.052;15.458;2022-09-09T04:15:14;97476.88;;;14.68;100.00
10470;BME280;5282;47.052;15.458;2022-09-09T04:17:41;97475.03;;;14.69;100.00
10470;BME280;5282;47.052;15.458;2022-09-09T04:20:11;97465.06;;;14.54;100.00
10470;BME280;5282;47.052;15.458;2022-09-09T04:22:42;97464.09;;;14.62;100.00
10470;BME280;5282;47.052;15.458;2022-09-09T04:25:09;97464.09;;;14.62;100.00
10470;BME280;5282;47.052;15.458;2022-09-09T04:27:36;97479.31;;;14.63;100.00
10470;BME280;5282;47.052;15.458;2022-09-09T04:30:03;97465.38;;;14.66;100.00
10470;BME280;5282;47.052;15.458;2022-09-09T04:32:33;97473.50;;;14.66;100.00
10470;BME280;5282;47.052;15.458;2022-09-09T04:35:01;97469.78;;;14.67;100.00
10470;BME280;5282;47.052;15.458;2022-09-09T04:37:28;97472.22;;;14.62;100.00
10470;BME280;5282;47.052;15.458;2022-09-09T04:39:57;97465.78;;;14.63;100.00
10470;BME280;5282;47.052;15.458;2022-09-09T04:42:27;97469.41;;;14.70;100.00
10470;BME280;5282;47.052;15.458;2022-09-09T04:44:54;97454.00;;;14.71;100.00
10470;BME280;5282;47.052;15.458;2022-09-09T04:47:21;97453.03;;;14.63;100.00
10470;BME280;5282;47.052;15.458;2022-09-09T04:49:49;97455.41;;;14.45;100.00
10470;BME280;5282;47.052;15.458;2022-09-09T04:52:15;97449.53;;;14.41;100.00
10470;BME280;5282;47.052;15.458;2022-09-09T04:54:43;97459.78;;;14.46;100.00
10470;BME280;5282;47.052;15.458;2022-09-09T04:57:13;97455.47;;;14.52;100.00
10470;BME280;5282;47.052;15.458;2022-09-09T04:59:39;97454.66;;;14.58;100.00
10470;BME280;5282;47.052;15.458;2022-09-09T05:02:06;97452.50;;;14.68;100.00
10470;BME280;5282;47.052;15.458;2022-09-09T05:04:33;97463.81;;;14.72;100.00
10470;BME280;5282;47.052;15.458;2022-09-09T05:07:01;97462.69;;;14.66;100.00
10470;BME280;5282;47.052;15.458;2022-09-09T05:09:29;97460.72;;;14.60;100.00
10470;BME280;5282;47.052;15.458;2022-09-09T05:11:57;97461.19;;;14.63;100.00
10470;BME280;5282;47.052;15.458;2022-09-09T05:14:25;97458.56;;;14.70;100.00
10470;BME280;5282;47.052;15.458;2022-09-09T05:16:52;97451.91;;;14.73;100.00
10470;BME280;5282;47.052;15.458;2022-09-09T05:19:19;97447.97;;;14.75;100.00
10470;BME280;5282;47.052;15.458;2022-09-09T05:21:46;97452.16;;;14.78;100.00
10470;BME280;5282;47.052;15.458;2022-09-09T05:24:13;97451.19;;;14.64;100.00
10470;BME280;5282;47.052;15.458;2022-09-09T05:26:40;97455.59;;;14.65;100.00
10470;BME280;5282;47.052;15.458;2022-09-09T05:29:07;97456.09;;;14.75;100.00
10470;BME280;5282;47.052;15.458;2022-09-09T05:31:35;97456.59;;;14.86;100.00
10470;BME280;5282;47.052;15.458;2022-09-09T05:34:02;97451.63;;;14.89;100.00
10470;BME280;5282;47.052;15.458;2022-09-09T05:36:29;97459.53;;;14.91;100.00
10470;BME280;5282;47.052;15.458;2022-09-09T05:38:56;97464.56;;;14.94;100.00
10470;BME280;5282;47.052;15.458;2022-09-09T05:41:23;97464.19;;;14.97;100.00
10470;BME280;5282;47.052;15.458;2022-09-09T05:43:49;97457.13;;;15.03;100.00
10470;BME280;5282;47.052;15.458;2022-09-09T05:46:19;97453.41;;;15.04;100.00
10470;BME280;5282;47.052;15.458;2022-09-09T05:48:49;97455.25;;;15.03;100.00
10470;BME280;5282;47.052;15.458;2022-09-09T05:51:18;97461.91;;;15.01;100.00
10470;BME280;5282;47.052;15.458;2022-09-09T05:53:47;97461.16;;;15.07;100.00
10470;BME280;5282;47.052;15.458;2022-09-09T05:56:16;97464.78;;;15.21;100.00
10470;BME280;5282;47.052;15.458;2022-09-09T05:58:44;97456.25;;;15.31;100.00
10470;BME280;5282;47.052;15.458;2022-09-09T06:01:14;97467.78;;;15.39;100.00
10470;BME280;5282;47.052;15.458;2022-09-09T06:03:43;97466.16;;;15.45;100.00
10470;BME280;5282;47.052;15.458;2022-09-09T06:06:15;97467.47;;;15.56;100.00
10470;BME280;5282;47.052;15.458;2022-09-09T06:08:44;97469.41;;;15.69;100.00
10470;BME280;5282;47.052;15.458;2022-09-09T06:11:13;97472.56;;;15.79;100.00
10470;BME280;5282;47.052;15.458;2022-09-09T06:13:42;97467.16;;;15.79;100.00
10470;BME280;5282;47.052;15.458;2022-09-09T06:16:14;97464.69;;;15.84;100.00
10470;BME280;5282;47.052;15.458;2022-09-09T06:18:42;97461.59;;;15.94;100.00
10470;BME280;5282;47.052;15.458;2022-09-09T06:21:16;97468.72;;;16.02;100.00
10470;BME280;5282;47.052;15.458;2022-09-09T06:23:44;97467.50;;;16.04;100.00
10470;BME280;5282;47.052;15.458;2022-09-09T06:26:13;97469.78;;;16.08;100.00
10470;BME280;5282;47.052;15.458;2022-09-09T06:28:40;97465.66;;;16.18;100.00
10470;BME280;5282;47.052;15.458;2022-09-09T06:31:10;97466.06;;;16.22;100.00
10470;BME280;5282;47.052;15.458;2022-09-09T06:33:38;97461.69;;;16.34;100.00
10470;BME280;5282;47.052;15.458;2022-09-09T06:36:07;97461.09;;;16.46;100.00
10470;BME280;5282;47.052;15.458;2022-09-09T06:38:38;97460.69;;;16.49;100.00
10470;BME280;5282;47.052;15.458;2022-09-09T06:41:05;97458.16;;;16.61;100.00
10470;BME280;5282;47.052;15.458;2022-09-09T06:43:34;97461.13;;;16.59;100.00
10470;BME280;5282;47.052;15.458;2022-09-09T06:46:04;97468.41;;;16.65;100.00
10470;BME280;5282;47.052;15.458;2022-09-09T06:48:31;97477.81;;;16.56;100.00
10470;BME280;5282;47.052;15.458;2022-09-09T06:51:03;97482.19;;;16.37;100.00
10470;BME280;5282;47.052;15.458;2022-09-09T06:53:31;97472.59;;;16.48;100.00
10470;BME280;5282;47.052;15.458;2022-09-09T06:56:01;97470.50;;;16.63;100.00
10470;BME280;5282;47.052;15.458;2022-09-09T06:58:28;97473.03;;;16.72;100.00
10470;BME280;5282;47.052;15.458;2022-09-09T07:01:02;97474.50;;;16.81;100.00
10470;BME280;5282;47.052;15.458;2022-09-09T07:03:29;97474.72;;;16.79;100.00
10470;BME280;5282;47.052;15.458;2022-09-09T07:05:56;97477.44;;;16.79;100.00
10470;BME280;5282;47.052;15.458;2022-09-09T07:08:23;97476.59;;;16.86;100.00
10470;BME280;5282;47.052;15.458;2022-09-09T07:10:52;97469.47;;;16.78;100.00
10470;BME280;5282;47.052;15.458;2022-09-09T07:13:23;97476.19;;;16.89;100.00
10470;BME280;5282;47.052;15.458;2022-09-09T07:15:51;97473.50;;;16.95;100.00
10470;BME280;5282;47.052;15.458;2022-09-09T07:18:18;97472.44;;;16.96;100.00
10470;BME280;5282;47.052;15.458;2022-09-09T07:20:53;97478.06;;;17.02;100.00
10470;BME280;5282;47.052;15.458;2022-09-09T07:23:20;97476.22;;;17.02;100.00
10470;BME280;5282;47.052;15.458;2022-09-09T07:25:48;97467.41;;;17.07;100.00
10470;BME280;5282;47.052;15.458;2022-09-09T07:28:16;97469.09;;;16.94;100.00
10470;BME280;5282;47.052;15.458;2022-09-09T07:30:52;97475.34;;;17.02;100.00
10470;BME280;5282;47.052;15.458;2022-09-09T07:33:19;97469.06;;;16.88;100.00
10470;BME280;5282;47.052;15.458;2022-09-09T07:35:46;97478.94;;;16.95;100.00
10470;BME280;5282;47.052;15.458;2022-09-09T07:38:13;97481.66;;;16.95;100.00
10470;BME280;5282;47.052;15.458;2022-09-09T07:40:41;97483.09;;;17.05;100.00
10470;BME280;5282;47.052;15.458;2022-09-09T07:43:07;97483.28;;;17.10;100.00
10470;BME280;5282;47.052;15.458;2022-09-09T07:45:35;97483.28;;;17.10;100.00
10470;BME280;5282;47.052;15.458;2022-09-09T07:48:04;97492.50;;;17.09;100.00
10470;BME280;5282;47.052;15.458;2022-09-09T07:50:31;97483.31;;;16.96;100.00
10470;BME280;5282;47.052;15.458;2022-09-09T07:52:58;97488.31;;;17.06;100.00
10470;BME280;5282;47.052;15.458;2022-09-09T07:55:26;97493.53;;;17.15;100.00
10470;BME280;5282;47.052;15.458;2022-09-09T07:57:53;97492.06;;;17.12;100.00
10470;BME280;5282;47.052;15.458;2022-09-09T08:00:22;97504.00;;;17.04;100.00
10470;BME280;5282;47.052;15.458;2022-09-09T08:02:49;97500.06;;;17.07;100.00
10470;BME280;5282;47.052;15.458;2022-09-09T08:05:17;97496.88;;;17.10;100.00
10470;BME280;5282;47.052;15.458;2022-09-09T08:07:44;97506.09;;;17.16;100.00
10470;BME280;5282;47.052;15.458;2022-09-09T08:10:11;97504.84;;;17.18;100.00
10470;BME280;5282;47.052;15.458;2022-09-09T08:12:40;97499.81;;;17.15;100.00
10470;BME280;5282;47.052;15.458;2022-09-09T08:15:07;97501.50;;;17.16;100.00
10470;BME280;5282;47.052;15.458;2022-09-09T08:17:37;97505.91;;;17.17;100.00
10470;BME280;5282;47.052;15.458;2022-09-09T08:20:04;97504.41;;;17.15;100.00
10470;BME280;5282;47.052;15.458;2022-09-09T08:22:33;97500.88;;;17.14;100.00
10470;BME280;5282;47.052;15.458;2022-09-09T08:25:00;97504.84;;;17.11;100.00
10470;BME280;5282;47.052;15.458;2022-09-09T08:27:28;97499.19;;;17.13;100.00
10470;BME280;5282;47.052;15.458;2022-09-09T08:29:55;97502.13;;;17.18;100.00
10470;BME280;5282;47.052;15.458;2022-09-09T08:32:22;97513.19;;;17.23;100.00
10470;BME280;5282;47.052;15.458;2022-09-09T08:34:50;97521.16;;;17.25;100.00
10470;BME280;5282;47.052;15.458;2022-09-09T08:37:16;97527.66;;;17.24;100.00
10470;BME280;5282;47.052;15.458;2022-09-09T08:39:46;97522.22;;;17.31;100.00
10470;BME280;5282;47.052;15.458;2022-09-09T08:42:34;97524.72;;;17.39;100.00
10470;BME280;5282;47.052;15.458;2022-09-09T08:45:18;97520.53;;;17.36;100.00
10470;BME280;5282;47.052;15.458;2022-09-09T08:47:54;97515.91;;;17.37;100.00
10470;BME280;5282;47.052;15.458;2022-09-09T08:50:28;97519.25;;;17.39;100.00
10470;BME280;5282;47.052;15.458;2022-09-09T08:53:01;97519.03;;;17.40;100.00
10470;BME280;5282;47.052;15.458;2022-09-09T08:55:37;97524.88;;;17.44;100.00
10470;BME280;5282;47.052;15.458;2022-09-09T08:58:12;97518.63;;;17.50;100.00
10470;BME280;5282;47.052;15.458;2022-09-09T09:00:47;97520.28;;;17.58;100.00
10470;BME280;5282;47.052;15.458;2022-09-09T09:03:28;97515.63;;;17.65;100.00
10470;BME280;5282;47.052;15.458;2022-09-09T09:06:05;97517.06;;;17.81;100.00
10470;BME280;5282;47.052;15.458;2022-09-09T09:08:39;97512.44;;;17.88;100.00
10470;BME280;5282;47.052;15.458;2022-09-09T09:11:12;97515.97;;;17.96;100.00
10470;BME280;5282;47.052;15.458;2022-09-09T09:13:44;97509.88;;;18.07;100.00
10470;BME280;5282;47.052;15.458;2022-09-09T09:16:19;97514.94;;;17.97;100.00
10470;BME280;5282;47.052;15.458;2022-09-09T09:18:49;97513.66;;;17.99;100.00
10470;BME280;5282;47.052;15.458;2022-09-09T09:21:20;97513.66;;;17.99;100.00
10470;BME280;5282;47.052;15.458;2022-09-09T09:23:54;97508.16;;;18.13;100.00
10470;BME280;5282;47.052;15.458;2022-09-09T09:26:29;97502.81;;;18.31;100.00
10470;BME280;5282;47.052;15.458;2022-09-09T09:29:03;97496.22;;;18.53;100.00
10470;BME280;5282;47.052;15.458;2022-09-09T09:31:35;97509.19;;;18.57;100.00
10470;BME280;5282;47.052;15.458;2022-09-09T09:34:01;97505.34;;;18.65;100.00
10470;BME280;5282;47.052;15.458;2022-09-09T09:36:34;97498.31;;;19.15;100.00
10470;BME280;5282;47.052;15.458;2022-09-09T09:39:08;97500.63;;;19.36;100.00
10470;BME280;5282;47.052;15.458;2022-09-09T09:41:38;97500.63;;;19.36;99.67
10470;BME280;5282;47.052;15.458;2022-09-09T09:44:22;97502.44;;;19.42;96.84
10470;BME280;5282;47.052;15.458;2022-09-09T09:46:52;97491.88;;;19.27;99.77
10470;BME280;5282;47.052;15.458;2022-09-09T09:49:19;97497.59;;;19.45;99.38
10470;BME280;5282;47.052;15.458;2022-09-09T09:51:46;97501.38;;;19.43;100.00
10470;BME280;5282;47.052;15.458;2022-09-09T09:54:20;97501.25;;;19.57;100.00
10470;BME280;5282;47.052;15.458;2022-09-09T09:56:50;97492.94;;;19.26;97.98
10470;BME280;5282;47.052;15.458;2022-09-09T09:59:33;97493.00;;;19.38;99.71
10470;BME280;5282;47.052;15.458;2022-09-09T10:02:15;97490.44;;;19.43;100.00
10470;BME280;5282;47.052;15.458;2022-09-09T10:04:42;97497.59;;;19.82;100.00
10470;BME280;5282;47.052;15.458;2022-09-09T10:07:12;97495.03;;;19.87;96.66
10470;BME280;5282;47.052;15.458;2022-09-09T10:09:40;97491.28;;;20.18;100.00
10470;BME280;5282;47.052;15.458;2022-09-09T10:12:19;97485.16;;;20.65;95.13
10470;BME280;5282;47.052;15.458;2022-09-09T10:14:56;97483.97;;;20.61;86.50
10470;BME280;5282;47.052;15.458;2022-09-09T10:17:36;97488.66;;;20.12;94.83
10470;BME280;5282;47.052;15.458;2022-09-09T10:20:29;97486.75;;;19.94;90.77
10470;BME280;5282;47.052;15.458;2022-09-09T10:23:17;97494.59;;;19.90;89.90
10470;BME280;5282;47.052;15.458;2022-09-09T10:26:02;97495.78;;;20.13;89.40
10470;BME280;5282;47.052;15.458;2022-09-09T10:29:13;97476.84;;;20.30;89.40
10470;BME280;5282;47.052;15.458;2022-09-09T10:31:54;97475.13;;;20.17;92.53
10470;BME280;5282;47.052;15.458;2022-09-09T10:34:43;97479.81;;;20.28;91.96
10470;BME280;5282;47.052;15.458;2022-09-09T10:37:22;97474.19;;;20.65;85.63
10470;BME280;5282;47.052;15.458;2022-09-09T10:39:59;97474.63;;;20.39;85.41
10470;BME280;5282;47.052;15.458;2022-09-09T10:42:31;97473.13;;;20.66;87.61
10470;BME280;5282;47.052;15.458;2022-09-09T10:45:15;97461.56;;;20.95;84.00
10470;BME280;5282;47.052;15.458;2022-09-09T10:47:55;97471.94;;;21.05;82.07
10470;BME280;5282;47.052;15.458;2022-09-09T10:50:40;97471.94;;;21.05;79.66
10470;BME280;5282;47.052;15.458;2022-09-09T10:53:14;97469.91;;;21.12;77.55
10470;BME280;5282;47.052;15.458;2022-09-09T10:55:50;97458.75;;;21.14;88.95
10470;BME280;5282;47.052;15.458;2022-09-09T10:58:22;97457.66;;;20.91;84.38
10470;BME280;5282;47.052;15.458;2022-09-09T11:00:54;97456.88;;;20.72;82.20
10470;BME280;5282;47.052;15.458;2022-09-09T11:03:24;97458.69;;;20.78;91.37
10470;BME280;5282;47.052;15.458;2022-09-09T11:05:58;97444.81;;;20.49;90.18
10470;BME280;5282;47.052;15.458;2022-09-09T11:08:29;97454.16;;;20.29;85.46
10470;BME280;5282;47.052;15.458;2022-09-09T11:11:00;97454.50;;;20.33;84.95
10470;BME280;5282;47.052;15.458;2022-09-09T11:13:34;97450.94;;;20.32;90.87
10470;BME280;5282;47.052;15.458;2022-09-09T11:16:16;97450.81;;;20.27;91.16
10470;BME280;5282;47.052;15.458;2022-09-09T11:18:46;97449.75;;;20.28;92.87
10470;BME280;5282;47.052;15.458;2022-09-09T11:21:17;97447.13;;;20.33;93.55
10470;BME280;5282;47.052;15.458;2022-09-09T11:23:50;97443.34;;;20.34;94.68
10470;BME280;5282;47.052;15.458;2022-09-09T11:26:27;97442.28;;;20.35;94.05
10470;BME280;5282;47.052;15.458;2022-09-09T11:29:10;97435.94;;;20.23;91.20
10470;BME280;5282;47.052;15.458;2022-09-09T11:31:49;97428.53;;;20.12;94.54
10470;BME280;5282;47.052;15.458;2022-09-09T11:34:40;97415.78;;;20.06;95.05
10470;BME280;5282;47.052;15.458;2022-09-09T11:37:28;97427.91;;;20.10;93.90
10470;BME280;5282;47.052;15.458;2022-09-09T11:40:19;97420.75;;;20.39;98.84
10470;BME280;5282;47.052;15.458;2022-09-09T11:42:47;97411.84;;;20.44;99.81
10470;BME280;5282;47.052;15.458;2022-09-09T11:45:21;97407.59;;;20.48;98.71
10470;BME280;5282;47.052;15.458;2022-09-09T11:47:56;97405.25;;;20.63;97.58
10470;BME280;5282;47.052;15.458;2022-09-09T11:50:31;97405.00;;;20.65;90.22
10470;BME280;5282;47.052;15.458;2022-09-09T11:53:18;97411.03;;;20.43;91.69
10470;BME280;5282;47.052;15.458;2022-09-09T11:55:59;97406.06;;;20.64;93.55
10470;BME280;5282;47.052;15.458;2022-09-09T11:58:28;97400.50;;;20.71;97.04
10470;BME280;5282;47.052;15.458;2022-09-09T12:01:00;97398.63;;;20.83;97.88
10470;BME280;5282;47.052;15.458;2022-09-09T12:03:41;97396.00;;;20.88;97.58
10470;BME280;5282;47.052;15.458;2022-09-09T12:06:12;97390.53;;;20.88;94.05
10470;BME280;5282;47.052;15.458;2022-09-09T12:08:43;97384.94;;;20.95;89.67
10470;BME280;5282;47.052;15.458;2022-09-09T12:11:11;97381.38;;;20.94;90.74
10470;BME280;5282;47.052;15.458;2022-09-09T12:13:38;97373.53;;;20.98;84.50
10470;BME280;5282;47.052;15.458;2022-09-09T12:16:28;97375.06;;;20.94;89.06
10470;BME280;5282;47.052;15.458;2022-09-09T12:19:14;97381.50;;;21.00;90.52
10470;BME280;5282;47.052;15.458;2022-09-09T12:21:50;97367.25;;;20.98;90.21
10470;BME280;5282;47.052;15.458;2022-09-09T12:24:29;97364.50;;;20.86;94.61
10470;BME280;5282;47.052;15.458;2022-09-09T12:27:02;97372.34;;;20.82;91.42
10470;BME280;5282;47.052;15.458;2022-09-09T12:29:43;97380.09;;;20.85;94.46
10470;BME280;5282;47.052;15.458;2022-09-09T12:32:16;97374.13;;;20.88;94.44
10470;BME280;5282;47.052;15.458;2022-09-09T12:34:51;97368.78;;;20.82;93.01
10470;BME280;5282;47.052;15.458;2022-09-09T12:37:26;97371.22;;;20.71;93.33
10470;BME280;5282;47.052;15.458;2022-09-09T12:39:56;97369.81;;;20.69;91.03
10470;BME280;5282;47.052;15.458;2022-09-09T12:42:24;97361.25;;;20.65;88.07
10470;BME280;5282;47.052;15.458;2022-09-09T12:44:54;97358.06;;;20.80;90.32
10470;BME280;5282;47.052;15.458;2022-09-09T12:47:26;97353.91;;;20.89;91.71
10470;BME280;5282;47.052;15.458;2022-09-09T12:49:57;97339.75;;;20.80;91.64
10470;BME280;5282;47.052;15.458;2022-09-09T12:52:28;97341.56;;;20.75;89.57
10470;BME280;5282;47.052;15.458;2022-09-09T12:54:58;97351.53;;;20.81;92.50
10470;BME280;5282;47.052;15.458;2022-09-09T12:57:33;97357.06;;;20.50;90.40
10470;BME280;5282;47.052;15.458;2022-09-09T13:00:14;97349.94;;;20.38;90.47
10470;BME280;5282;47.052;15.458;2022-09-09T13:02:50;97340.19;;;20.54;90.84
10470;BME280;5282;47.052;15.458;2022-09-09T13:05:22;97342.69;;;20.67;94.40
10470;BME280;5282;47.052;15.458;2022-09-09T13:07:49;97338.56;;;20.64;89.24
10470;BME280;5282;47.052;15.458;2022-09-09T13:10:23;97340.44;;;20.52;86.86
10470;BME280;5282;47.052;15.458;2022-09-09T13:12:52;97343.75;;;20.42;87.04
10470;BME280;5282;47.052;15.458;2022-09-09T13:15:22;97333.53;;;20.49;89.59
10470;BME280;5282;47.052;15.458;2022-09-09T13:17:55;97330.06;;;20.30;87.62
10470;BME280;5282;47.052;15.458;2022-09-09T13:20:25;97324.22;;;20.27;89.62